Lewistown, Illinois
Current Conditions -  °F | °C
As of 9:15 AM on Wednesday 22 Oct 2014 (Local Time) from KMQB Reporting Station
Clear Clear  
Wind Chill: 38°   Ceiling: Unl
Heat Index: 41°   Visibility: 7mi
Dew Point: 40°   Wind: 6mph
Humidity: 97%   Direction: 120°ESE
Pressure: 30.36"   Gusts: NA
Location:  40.39°N, 90.15°W
Report Text: KMQB 221415Z AUTO 12005KT 7SM CLR 05/05 A3036 RMK AO2 T00520047
Loading
Personal Weather Stations






























Interactive Weather Map
Tropical Storm Tracking
New forecast layout! Learn more

10-Day Weather Forecast

Advertisements
Track Severe Weather on mobile